Time;durP1;ratioP1;P1;durP2;ratioP2;P2;SDS_P1;SDS_P2;PMS_P1;PMS_P2;Temp;Humidity;BMP_temperature;BMP_pressure;BME280_temperature;BME280_humidity;BME280_pressure;Samples;Min_cycle;Max_cycle;Signal;HPM_P1;HPM_P2
2021/07/21 00:01:15;;;;;;;8.90;4.72;;;17.10;71.60;;;;;;5092014;28;20028;-68
2021/07/21 00:03:40;;;;;;;9.13;5.45;;;17.00;72.20;;;;;;5085197;28;20017;-68
2021/07/21 00:06:06;;;;;;;9.25;5.40;;;17.00;71.90;;;;;;5066549;28;20029;-68
2021/07/21 00:08:31;;;;;;;8.10;5.43;;;16.90;71.90;;;;;;5071573;28;20427;-68
2021/07/21 00:13:41;;;;;;;7.75;5.30;;;16.90;72.30;;;;;;5066468;28;20063;-68
2021/07/21 00:16:27;;;;;;;7.70;5.63;;;16.90;72.40;;;;;;5070735;28;20044;-68
2021/07/21 00:18:57;;;;;;;7.78;5.05;;;16.90;72.50;;;;;;5065345;28;20132;-69
2021/07/21 00:21:26;;;;;;;11.35;5.55;;;16.80;72.50;;;;;;5060722;28;20017;-67
2021/07/21 00:23:52;;;;;;;6.93;4.78;;;16.80;72.70;;;;;;5073540;28;20367;-68
2021/07/21 00:26:19;;;;;;;7.75;4.90;;;16.80;72.80;;;;;;5084740;28;20115;-68
2021/07/21 00:28:44;;;;;;;8.60;5.43;;;16.80;72.80;;;;;;5071205;28;20032;-67
2021/07/21 00:31:15;;;;;;;6.90;5.22;;;16.80;73.00;;;;;;5070994;28;20457;-68
2021/07/21 00:33:42;;;;;;;8.68;5.18;;;16.70;73.00;;;;;;5053206;28;20032;-67
2021/07/21 00:36:08;;;;;;;8.02;5.35;;;16.70;73.00;;;;;;5070016;28;20028;-68
2021/07/21 00:38:33;;;;;;;11.15;5.57;;;16.70;73.10;;;;;;5070783;28;20025;-68
2021/07/21 00:40:59;;;;;;;8.30;5.68;;;16.60;73.10;;;;;;5070836;28;20075;-67
2021/07/21 00:43:27;;;;;;;9.68;5.53;;;16.60;73.20;;;;;;5071004;28;20454;-67
2021/07/21 00:45:53;;;;;;;9.05;5.00;;;16.60;73.40;;;;;;5069844;28;20036;-68
2021/07/21 00:48:19;;;;;;;9.40;4.97;;;16.50;73.70;;;;;;5070731;28;20028;-67
2021/07/21 00:50:44;;;;;;;11.02;5.53;;;16.50;73.80;;;;;;5070817;28;20103;-67
2021/07/21 00:53:10;;;;;;;9.57;5.85;;;16.40;73.80;;;;;;5070511;28;20051;-67
2021/07/21 00:55:36;;;;;;;7.38;5.43;;;16.40;73.90;;;;;;5069411;28;20479;-67
2021/07/21 00:58:02;;;;;;;7.45;5.05;;;16.40;74.00;;;;;;5070491;28;20028;-67
2021/07/21 01:00:28;;;;;;;8.15;5.40;;;16.40;74.20;;;;;;5070781;28;20050;-67
2021/07/21 01:02:54;;;;;;;10.32;5.50;;;16.30;74.20;;;;;;5070661;28;20058;-67
2021/07/21 01:05:29;;;;;;;9.45;5.75;;;16.30;74.30;;;;;;5069717;28;20025;-67
2021/07/21 01:07:55;;;;;;;8.40;5.60;;;16.30;74.60;;;;;;5070489;28;20021;-67
2021/07/21 01:10:23;;;;;;;7.90;5.32;;;16.20;74.50;;;;;;5070605;28;20029;-67
2021/07/21 01:12:52;;;;;;;11.88;5.95;;;16.20;75.20;;;;;;5070321;28;20032;-67
2021/07/21 01:15:21;;;;;;;8.80;5.55;;;16.20;74.80;;;;;;5069573;28;20031;-67
2021/07/21 01:18:02;;;;;;;8.93;5.85;;;16.20;75.30;;;;;;5065400;28;20016;-68
2021/07/21 01:21:10;;;;;;;8.82;5.63;;;16.10;74.90;;;;;;5052296;28;20020;-68
2021/07/21 01:23:47;;;;;;;9.93;5.20;;;16.00;75.10;;;;;;5079641;28;20020;-68
2021/07/21 01:26:23;;;;;;;8.73;5.28;;;16.00;75.10;;;;;;5089346;28;20424;-68
2021/07/21 01:28:50;;;;;;;7.78;5.40;;;16.00;75.40;;;;;;5090652;28;20120;-68
2021/07/21 01:31:21;;;;;;;9.40;6.05;;;16.00;75.30;;;;;;5090714;28;20687;-68
2021/07/21 01:33:48;;;;;;;7.65;5.82;;;16.00;75.40;;;;;;5090378;28;20032;-68
2021/07/21 01:36:33;;;;;;;10.05;6.15;;;16.00;75.40;;;;;;5089456;28;20536;-68
2021/07/21 01:39:06;;;;;;;10.65;5.90;;;16.00;75.70;;;;;;5090341;28;20452;-68
2021/07/21 01:41:36;;;;;;;10.52;5.78;;;15.90;75.60;;;;;;5090571;28;20020;-68
2021/07/21 01:44:12;;;;;;;8.23;5.35;;;15.90;75.60;;;;;;5090367;28;20480;-68
2021/07/21 01:46:40;;;;;;;8.77;5.40;;;15.90;75.90;;;;;;5089496;28;20081;-68
2021/07/21 01:49:09;;;;;;;11.23;5.70;;;15.80;75.80;;;;;;5090452;28;20069;-68
2021/07/21 01:51:35;;;;;;;12.00;5.53;;;15.80;76.00;;;;;;5090485;28;20043;-68
2021/07/21 01:54:02;;;;;;;12.70;5.53;;;15.70;76.00;;;;;;5079014;28;20111;-68
2021/07/21 01:56:29;;;;;;;11.82;5.65;;;15.70;76.20;;;;;;5085621;28;20020;-68
2021/07/21 01:58:56;;;;;;;9.27;5.55;;;15.70;76.30;;;;;;5070062;28;20056;-68
2021/07/21 02:01:27;;;;;;;9.50;6.25;;;15.70;76.30;;;;;;5070227;28;20044;-68
2021/07/21 02:03:56;;;;;;;11.80;6.28;;;15.60;76.50;;;;;;5072560;28;20032;-68
2021/07/21 02:06:22;;;;;;;8.93;5.97;;;15.70;76.50;;;;;;5072779;28;20053;-68
2021/07/21 02:08:48;;;;;;;9.77;6.63;;;15.60;76.50;;;;;;5073683;28;20071;-68
2021/07/21 02:11:14;;;;;;;11.93;6.25;;;15.60;76.70;;;;;;5073611;28;20025;-68
2021/07/21 02:13:40;;;;;;;8.05;6.13;;;15.60;76.80;;;;;;5073827;28;20101;-68
2021/07/21 02:16:07;;;;;;;9.40;6.03;;;15.60;76.90;;;;;;5072619;28;20020;-68
2021/07/21 02:18:34;;;;;;;10.95;5.65;;;15.50;76.80;;;;;;5062144;28;20024;-68
2021/07/21 02:21:03;;;;;;;10.48;6.18;;;15.50;77.00;;;;;;5060039;28;20048;-68
2021/07/21 02:23:29;;;;;;;11.98;6.07;;;15.40;77.10;;;;;;5071023;28;20373;-68
2021/07/21 02:25:59;;;;;;;10.75;6.00;;;15.30;77.10;;;;;;5092496;28;20028;-68
2021/07/21 02:28:25;;;;;;;12.38;6.63;;;15.30;77.40;;;;;;5093727;28;20035;-68
2021/07/21 02:30:53;;;;;;;9.70;6.60;;;15.20;77.30;;;;;;5093785;28;20024;-68
2021/07/21 02:33:27;;;;;;;10.55;6.35;;;15.20;77.50;;;;;;5093714;28;20028;-68
2021/07/21 02:35:53;;;;;;;8.05;5.53;;;15.20;77.80;;;;;;5092582;28;20017;-68
2021/07/21 02:38:19;;;;;;;11.27;6.22;;;15.10;77.70;;;;;;5093196;28;20380;-67
2021/07/21 02:40:45;;;;;;;10.38;5.65;;;15.00;77.80;;;;;;5093542;28;20023;-68
2021/07/21 02:43:11;;;;;;;12.68;6.18;;;15.00;77.90;;;;;;5075478;28;20024;-68
2021/07/21 02:45:37;;;;;;;8.77;6.03;;;14.90;78.10;;;;;;5092414;28;20433;-67
2021/07/21 02:48:06;;;;;;;9.38;6.18;;;14.90;78.20;;;;;;5093419;28;20027;-68
2021/07/21 02:50:32;;;;;;;9.52;6.03;;;14.90;78.40;;;;;;5093311;28;20032;-68
2021/07/21 02:53:11;;;;;;;12.65;6.80;;;14.80;78.40;;;;;;5083723;28;20035;-68
2021/07/21 02:55:43;;;;;;;9.55;6.68;;;14.70;78.70;;;;;;5071851;28;20013;-68
2021/07/21 02:58:29;;;;;;;10.48;6.10;;;14.70;78.70;;;;;;5072992;28;20020;-68
2021/07/21 03:00:58;;;;;;;11.63;6.22;;;14.70;79.10;;;;;;5071291;28;20025;-68
2021/07/21 03:03:25;;;;;;;10.25;5.80;;;14.70;79.40;;;;;;5053041;28;20096;-70
2021/07/21 03:05:54;;;;;;;11.88;6.32;;;14.70;78.80;;;;;;5052040;28;20029;-69
2021/07/21 03:08:25;;;;;;;8.65;5.57;;;14.70;79.00;;;;;;5052545;28;20033;-69
2021/07/21 03:10:52;;;;;;;12.80;6.72;;;14.70;79.40;;;;;;5052748;28;20033;-71
2021/07/21 03:13:22;;;;;;;10.38;6.43;;;14.70;79.10;;;;;;5053746;28;20033;-70
2021/07/21 03:15:48;;;;;;;13.57;7.28;;;14.70;79.20;;;;;;5070093;28;20021;-69
2021/07/21 03:18:23;;;;;;;11.10;6.65;;;14.70;79.20;;;;;;5063819;28;20060;-69
2021/07/21 03:20:49;;;;;;;11.65;6.55;;;14.60;79.20;;;;;;5057674;28;20048;-70
2021/07/21 03:23:15;;;;;;;9.82;6.45;;;14.60;79.20;;;;;;5067829;28;20315;-70
2021/07/21 03:25:42;;;;;;;11.02;6.57;;;14.60;79.20;;;;;;5071385;28;20571;-69
2021/07/21 03:28:08;;;;;;;13.45;6.00;;;14.50;79.80;;;;;;5072277;28;20079;-68
2021/07/21 03:30:35;;;;;;;9.98;6.40;;;14.60;79.60;;;;;;5072404;28;20475;-69
2021/07/21 03:33:02;;;;;;;9.73;5.93;;;14.50;79.60;;;;;;5072455;28;20025;-69
2021/07/21 03:35:32;;;;;;;9.38;5.85;;;14.60;79.70;;;;;;5071120;28;20024;-68
2021/07/21 03:37:59;;;;;;;12.05;6.63;;;14.60;79.70;;;;;;5072222;28;20074;-69
2021/07/21 03:40:27;;;;;;;8.20;5.85;;;14.50;79.60;;;;;;5072223;28;20148;-69
2021/07/21 03:42:55;;;;;;;10.70;6.95;;;14.50;79.80;;;;;;5071970;28;20020;-69
2021/07/21 03:45:24;;;;;;;10.63;6.40;;;14.40;79.90;;;;;;5052574;28;20029;-68
2021/07/21 03:47:50;;;;;;;11.85;6.72;;;14.40;80.00;;;;;;5054045;28;20021;-69
2021/07/21 03:50:21;;;;;;;14.10;6.32;;;14.40;80.00;;;;;;5071924;28;20032;-66
2021/07/21 03:52:48;;;;;;;14.77;7.25;;;14.40;80.30;;;;;;5072228;28;20384;-69
2021/07/21 03:55:16;;;;;;;14.73;7.03;;;14.30;80.20;;;;;;5070717;28;20017;-69
2021/07/21 03:57:43;;;;;;;11.98;7.32;;;14.30;80.80;;;;;;5071808;28;20099;-69
2021/07/21 04:00:11;;;;;;;10.88;6.80;;;14.30;80.50;;;;;;5071600;28;20020;-69
2021/07/21 04:02:37;;;;;;;10.02;6.88;;;14.20;80.60;;;;;;5071811;28;20036;-67
2021/07/21 04:05:05;;;;;;;17.30;7.60;;;14.30;80.60;;;;;;5070368;28;20115;-68
2021/07/21 04:07:36;;;;;;;12.50;6.72;;;14.20;80.70;;;;;;5071591;28;20024;-68
2021/07/21 04:10:05;;;;;;;12.77;7.00;;;14.20;80.90;;;;;;5071467;28;20119;-69
2021/07/21 04:12:33;;;;;;;10.40;7.18;;;14.20;80.90;;;;;;5071377;28;20040;-69
2021/07/21 04:15:00;;;;;;;11.40;6.60;;;14.20;81.00;;;;;;5069751;28;20283;-69
2021/07/21 04:17:29;;;;;;;10.10;6.55;;;14.10;81.10;;;;;;5068830;28;20032;-68
2021/07/21 04:19:56;;;;;;;12.73;7.22;;;14.10;81.10;;;;;;5050935;28;20047;-66
2021/07/21 04:22:22;;;;;;;14.07;7.00;;;14.10;81.10;;;;;;5068836;28;20475;-69
2021/07/21 04:24:48;;;;;;;10.90;6.80;;;14.20;81.30;;;;;;5065466;28;20090;-69
2021/07/21 04:27:14;;;;;;;10.75;7.00;;;14.20;81.40;;;;;;5070694;28;20033;-69
2021/07/21 04:29:42;;;;;;;13.88;6.88;;;14.20;81.70;;;;;;5070950;28;20020;-68
2021/07/21 04:32:09;;;;;;;9.63;6.75;;;14.20;81.40;;;;;;5071305;28;20357;-68
2021/07/21 04:34:35;;;;;;;12.57;7.10;;;14.20;81.50;;;;;;5069796;28;20029;-66
2021/07/21 04:37:01;;;;;;;11.98;7.10;;;14.20;81.60;;;;;;5070877;28;20033;-70
2021/07/21 04:39:29;;;;;;;11.65;7.35;;;14.20;81.80;;;;;;5070961;28;20025;-69
2021/07/21 04:41:57;;;;;;;11.82;6.90;;;14.20;82.10;;;;;;5070935;28;20490;-69
2021/07/21 04:44:22;;;;;;;12.80;7.53;;;14.30;82.20;;;;;;5070449;28;20495;-69
2021/07/21 04:46:49;;;;;;;11.70;7.55;;;14.30;82.30;;;;;;5069765;28;20048;-69
2021/07/21 04:49:21;;;;;;;13.18;7.13;;;14.30;82.40;;;;;;5071036;28;20059;-69
2021/07/21 04:51:48;;;;;;;10.95;7.05;;;14.40;82.70;;;;;;5070940;28;20547;-70
2021/07/21 04:54:15;;;;;;;11.32;7.50;;;14.30;82.60;;;;;;5070755;28;20036;-65
2021/07/21 04:56:41;;;;;;;12.32;7.30;;;14.40;83.00;;;;;;5069507;28;20078;-68
2021/07/21 04:59:07;;;;;;;11.80;6.45;;;14.40;83.10;;;;;;5070634;28;20434;-69
2021/07/21 05:01:37;;;;;;;13.35;7.20;;;14.50;83.20;;;;;;5070807;28;20032;-69
2021/07/21 05:04:04;;;;;;;15.23;7.57;;;14.50;83.50;;;;;;5070677;28;20436;-69
2021/07/21 05:06:31;;;;;;;14.70;8.27;;;14.50;83.40;;;;;;5069772;28;20381;-70
2021/07/21 05:08:57;;;;;;;15.88;7.60;;;14.50;83.40;;;;;;5070428;28;20024;-70
2021/07/21 05:11:22;;;;;;;14.18;7.55;;;14.60;83.60;;;;;;5142519;22;20121;-67
2021/07/21 05:13:48;;;;;;;14.60;7.70;;;14.60;84.20;;;;;;5061786;28;20090;-67
2021/07/21 05:16:14;;;;;;;15.05;7.57;;;14.70;83.90;;;;;;5077790;28;20027;-67
2021/07/21 05:18:42;;;;;;;11.45;6.93;;;14.80;84.00;;;;;;5077683;28;20024;-67
2021/07/21 05:21:07;;;;;;;12.88;7.15;;;14.80;84.00;;;;;;5077750;28;20013;-67
2021/07/21 05:23:33;;;;;;;15.50;7.32;;;14.80;83.90;;;;;;5078147;28;20472;-67
2021/07/21 05:25:59;;;;;;;11.75;7.40;;;14.90;83.80;;;;;;5048636;28;20051;-67
2021/07/21 05:28:26;;;;;;;15.25;8.23;;;15.00;83.70;;;;;;5070082;28;20024;-67
2021/07/21 05:30:53;;;;;;;11.30;7.53;;;15.00;84.10;;;;;;5070357;28;20070;-67
2021/07/21 05:33:19;;;;;;;12.52;7.20;;;15.10;83.70;;;;;;5076681;28;20034;-67
2021/07/21 05:35:45;;;;;;;12.65;6.70;;;15.20;83.70;;;;;;5068877;28;20149;-67
2021/07/21 05:38:11;;;;;;;13.35;7.95;;;15.20;83.70;;;;;;5070255;28;20035;-67
2021/07/21 05:40:37;;;;;;;10.30;7.00;;;15.30;84.30;;;;;;5091044;28;20091;-68
2021/07/21 05:43:04;;;;;;;11.18;7.60;;;15.40;83.80;;;;;;5094423;28;20099;-67
2021/07/21 05:45:29;;;;;;;12.82;7.65;;;15.40;83.70;;;;;;5093561;28;20125;-67
2021/07/21 05:47:55;;;;;;;13.23;7.00;;;15.50;83.60;;;;;;5094234;28;20016;-67
2021/07/21 05:50:20;;;;;;;13.23;7.00;;;15.50;83.50;;;;;;5094375;28;20112;-67
2021/07/21 05:52:46;;;;;;;14.93;7.50;;;15.60;84.00;;;;;;5094435;28;20051;-67
2021/07/21 05:55:12;;;;;;;10.45;6.28;;;15.60;83.50;;;;;;5093080;28;20085;-67
2021/07/21 05:57:38;;;;;;;13.95;7.93;;;15.70;83.70;;;;;;5094252;28;20043;-67
2021/07/21 06:00:07;;;;;;;11.75;6.72;;;15.70;83.90;;;;;;5094523;28;20016;-67
2021/07/21 06:02:33;;;;;;;13.32;7.25;;;15.80;84.20;;;;;;5094482;28;20020;-67
2021/07/21 06:04:59;;;;;;;11.82;6.32;;;15.80;84.10;;;;;;5093180;28;20028;-67
2021/07/21 06:07:25;;;;;;;9.93;6.78;;;15.90;84.10;;;;;;5094141;28;20020;-67
2021/07/21 06:09:50;;;;;;;11.10;7.28;;;15.90;84.20;;;;;;5093802;28;20021;-67
2021/07/21 06:12:16;;;;;;;9.65;6.63;;;16.00;84.20;;;;;;5090611;28;20035;-67
2021/07/21 06:14:41;;;;;;;11.63;7.00;;;16.00;84.10;;;;;;5092865;28;20496;-67
2021/07/21 06:17:07;;;;;;;15.20;8.07;;;16.10;84.20;;;;;;5093695;28;20081;-67
2021/07/21 06:19:36;;;;;;;18.55;7.65;;;16.20;84.30;;;;;;5073624;28;20027;-67
2021/07/21 06:22:03;;;;;;;11.95;6.90;;;16.20;84.20;;;;;;5089195;28;20021;-67
2021/07/21 06:24:28;;;;;;;13.77;7.78;;;16.20;84.40;;;;;;5073752;28;20020;-67
2021/07/21 06:26:55;;;;;;;14.38;7.70;;;16.30;84.50;;;;;;5072528;28;20472;-67
2021/07/21 06:29:21;;;;;;;12.65;7.55;;;16.30;84.40;;;;;;5073573;28;20106;-67
2021/07/21 06:31:46;;;;;;;17.30;7.53;;;16.40;84.50;;;;;;5073491;28;20024;-67
2021/07/21 06:34:12;;;;;;;11.50;7.53;;;16.40;84.30;;;;;;5073459;28;20024;-67
2021/07/21 06:36:38;;;;;;;12.68;7.13;;;16.50;84.20;;;;;;5072152;28;20017;-67
2021/07/21 06:39:04;;;;;;;13.25;7.13;;;16.50;84.00;;;;;;5073240;28;20016;-67
2021/07/21 06:41:30;;;;;;;12.23;7.50;;;16.60;84.10;;;;;;5083560;28;20099;-67
2021/07/21 06:43:59;;;;;;;10.50;6.97;;;16.70;84.00;;;;;;5093213;28;20031;-67
2021/07/21 06:46:25;;;;;;;10.65;6.50;;;16.80;83.90;;;;;;5092248;28;20028;-67
2021/07/21 06:48:52;;;;;;;11.85;6.60;;;16.80;84.00;;;;;;5074968;28;20024;-67
2021/07/21 06:51:18;;;;;;;10.98;7.10;;;16.90;83.80;;;;;;5093329;28;20024;-67
2021/07/21 06:53:43;;;;;;;11.50;7.53;;;17.10;83.60;;;;;;5093255;28;20024;-67
2021/07/21 06:56:09;;;;;;;12.55;7.38;;;17.20;83.30;;;;;;5092088;28;20046;-67
2021/07/21 06:58:35;;;;;;;10.77;7.15;;;17.30;83.10;;;;;;5092943;28;20070;-67
2021/07/21 07:01:00;;;;;;;14.40;7.03;;;17.40;82.80;;;;;;5093241;28;20048;-67
2021/07/21 07:03:26;;;;;;;9.75;6.20;;;17.50;82.60;;;;;;5093261;28;20028;-67
2021/07/21 07:05:52;;;;;;;12.15;6.30;;;17.70;82.40;;;;;;5091787;28;20114;-67
2021/07/21 07:08:18;;;;;;;11.05;6.63;;;17.90;82.30;;;;;;5068932;28;20454;-67
2021/07/21 07:10:43;;;;;;;13.05;6.65;;;18.10;81.80;;;;;;5073966;28;20040;-67
2021/07/21 07:13:09;;;;;;;12.35;6.85;;;18.40;81.40;;;;;;5089245;28;20059;-67
2021/07/21 07:15:34;;;;;;;9.63;6.55;;;18.60;80.80;;;;;;5086322;28;20074;-67
2021/07/21 07:18:00;;;;;;;9.95;6.45;;;18.90;80.70;;;;;;5059463;28;20396;-67
2021/07/21 07:20:26;;;;;;;8.90;6.00;;;19.10;79.90;;;;;;5074482;28;20024;-67
2021/07/21 07:22:51;;;;;;;10.55;5.90;;;19.40;79.50;;;;;;5074827;28;20158;-67
2021/07/21 07:25:17;;;;;;;11.10;5.97;;;19.70;79.40;;;;;;5048373;28;20480;-67
2021/07/21 07:27:43;;;;;;;12.95;6.20;;;20.00;78.40;;;;;;5052578;28;20017;-67
2021/07/21 07:30:10;;;;;;;12.23;6.35;;;20.30;77.60;;;;;;5052897;28;20020;-67
2021/07/21 07:32:37;;;;;;;11.50;6.13;;;20.60;76.50;;;;;;5052954;28;20021;-67
2021/07/21 07:35:04;;;;;;;11.10;5.78;;;21.00;75.80;;;;;;5051568;28;20024;-69
2021/07/21 07:37:29;;;;;;;11.10;6.25;;;21.30;74.80;;;;;;5052669;28;20469;-67
2021/07/21 07:39:55;;;;;;;8.95;5.95;;;21.60;74.60;;;;;;5053460;28;20021;-67
2021/07/21 07:42:21;;;;;;;8.68;5.97;;;21.90;73.50;;;;;;5083810;28;20044;-67
2021/07/21 07:44:46;;;;;;;11.30;6.00;;;22.10;73.10;;;;;;5091714;28;20032;-67
2021/07/21 07:47:13;;;;;;;10.70;5.30;;;22.50;72.00;;;;;;5092723;28;20099;-67
2021/07/21 07:49:39;;;;;;;9.60;6.03;;;22.80;70.90;;;;;;5092616;28;20024;-67
2021/07/21 07:52:05;;;;;;;11.25;5.93;;;23.20;70.30;;;;;;5092750;28;20107;-67
2021/07/21 07:54:30;;;;;;;10.00;5.68;;;23.50;69.70;;;;;;5092006;28;20107;-67
2021/07/21 07:56:56;;;;;;;9.95;6.25;;;23.80;68.50;;;;;;5091561;28;20055;-67
2021/07/21 07:59:21;;;;;;;9.88;5.53;;;24.10;67.60;;;;;;5092543;28;20024;-67
2021/07/21 08:01:47;;;;;;;12.38;5.75;;;24.50;66.70;;;;;;5091959;28;20021;-67
2021/07/21 08:04:12;;;;;;;8.40;5.43;;;24.80;65.70;;;;;;5092453;28;20376;-67
2021/07/21 08:06:38;;;;;;;7.38;4.90;;;25.00;65.30;;;;;;5073075;28;20021;-67
2021/07/21 08:09:12;;;;;;;8.45;5.50;;;25.30;64.30;;;;;;5070239;28;20033;-67
2021/07/21 08:11:40;;;;;;;7.88;4.97;;;25.60;63.30;;;;;;5083444;28;20024;-67
2021/07/21 08:14:05;;;;;;;11.52;5.22;;;26.00;62.30;;;;;;5092145;28;20024;-67
2021/07/21 08:16:31;;;;;;;6.93;4.65;;;26.30;61.40;;;;;;5091242;28;20035;-68
2021/07/21 08:18:56;;;;;;;15.27;4.82;;;26.60;60.20;;;;;;5076979;28;20028;-67
2021/07/21 08:21:22;;;;;;;9.93;5.00;;;26.80;59.70;;;;;;5081409;28;20027;-67
2021/07/21 08:23:47;;;;;;;6.38;4.88;;;27.10;59.70;;;;;;5073660;28;20073;-68
2021/07/21 08:26:13;;;;;;;6.75;4.57;;;27.40;58.20;;;;;;5090557;28;20032;-67
2021/07/21 08:28:38;;;;;;;4.82;4.03;;;27.60;57.60;;;;;;5091916;28;20092;-67
2021/07/21 08:31:04;;;;;;;9.10;4.55;;;27.90;57.30;;;;;;5091851;28;20031;-67
2021/07/21 08:33:30;;;;;;;9.18;7.22;;;28.10;56.30;;;;;;5091455;28;20078;-67
2021/07/21 08:35:55;;;;;;;7.63;4.78;;;28.40;55.40;;;;;;5090598;28;20063;-67
2021/07/21 08:38:21;;;;;;;8.73;4.88;;;28.70;54.90;;;;;;5091487;28;20490;-67
2021/07/21 08:40:48;;;;;;;8.95;5.07;;;29.00;54.20;;;;;;5087999;28;20051;-68
2021/07/21 08:43:15;;;;;;;10.07;4.75;;;29.30;53.10;;;;;;5087775;28;20074;-68
2021/07/21 08:45:41;;;;;;;7.93;4.85;;;29.70;52.90;;;;;;5090825;28;20020;-68
2021/07/21 08:48:07;;;;;;;6.57;4.95;;;30.10;51.70;;;;;;5091855;28;20016;-68
2021/07/21 08:50:32;;;;;;;10.70;4.97;;;30.40;51.70;;;;;;5091597;28;20029;-68
2021/07/21 08:52:59;;;;;;;8.45;5.03;;;30.80;50.70;;;;;;5091701;28;20028;-68
2021/07/21 08:55:25;;;;;;;7.63;4.47;;;31.20;49.60;;;;;;5090380;28;20016;-68
2021/07/21 08:57:51;;;;;;;8.68;4.75;;;31.60;48.80;;;;;;5091289;28;20039;-68
2021/07/21 09:00:18;;;;;;;11.57;7.95;;;31.90;48.20;;;;;;5091595;28;20016;-67
2021/07/21 09:02:45;;;;;;;7.63;4.38;;;32.20;47.20;;;;;;5091431;28;20097;-67
2021/07/21 09:05:13;;;;;;;6.53;4.45;;;32.50;46.90;;;;;;5090070;28;20028;-68
2021/07/21 09:07:40;;;;;;;6.75;4.57;;;32.70;46.00;;;;;;5072886;28;20031;-68
2021/07/21 09:10:08;;;;;;;6.95;4.45;;;32.90;45.50;;;;;;5068960;28;20036;-67
2021/07/21 09:12:36;;;;;;;7.55;4.55;;;33.20;45.20;;;;;;5072744;28;20034;-68
2021/07/21 09:15:03;;;;;;;8.48;4.00;;;33.50;44.70;;;;;;5090078;28;20024;-68
2021/07/21 09:17:30;;;;;;;9.13;4.35;;;33.90;44.20;;;;;;5085883;28;20024;-68
2021/07/21 09:19:56;;;;;;;9.02;4.88;;;34.20;44.20;;;;;;5070622;28;20070;-68
2021/07/21 09:22:27;;;;;;;8.02;4.43;;;34.40;43.70;;;;;;5088691;28;20028;-68
2021/07/21 09:25:18;;;;;;;7.90;4.78;;;34.70;43.20;;;;;;5071942;28;20388;-68
2021/07/21 09:27:49;;;;;;;10.27;4.65;;;34.90;43.30;;;;;;5090675;28;20403;-68
2021/07/21 09:30:21;;;;;;;5.85;4.28;;;35.10;42.20;;;;;;5091099;28;20028;-68
2021/07/21 09:33:05;;;;;;;8.40;4.53;;;35.30;42.00;;;;;;5090753;28;20024;-68
2021/07/21 09:35:53;;;;;;;7.65;4.57;;;35.50;41.90;;;;;;5089923;28;20099;-68
2021/07/21 09:38:28;;;;;;;6.18;4.63;;;35.10;41.80;;;;;;5090594;28;20078;-68
2021/07/21 09:40:56;;;;;;;7.97;4.45;;;35.20;41.10;;;;;;5087395;28;20054;-66
2021/07/21 09:43:28;;;;;;;5.38;4.00;;;35.50;41.30;;;;;;5072473;28;20511;-67
2021/07/21 09:46:04;;;;;;;5.97;4.55;;;35.70;41.00;;;;;;5089929;28;20430;-69
2021/07/21 09:48:37;;;;;;;7.85;4.55;;;35.90;40.60;;;;;;5090857;28;20410;-69
2021/07/21 09:51:03;;;;;;;9.18;4.18;;;35.90;40.30;;;;;;5090857;28;20034;-69
2021/07/21 09:53:41;;;;;;;6.60;4.20;;;35.80;40.60;;;;;;5090876;28;20107;-69
2021/07/21 09:56:08;;;;;;;6.55;5.07;;;35.70;40.80;;;;;;5089555;28;20379;-69
2021/07/21 09:58:34;;;;;;;6.70;4.65;;;35.60;40.70;;;;;;5090825;28;20032;-69
2021/07/21 10:01:01;;;;;;;9.35;5.05;;;35.60;40.90;;;;;;5090834;28;20027;-69
2021/07/21 10:03:29;;;;;;;6.80;4.90;;;35.40;40.30;;;;;;5072651;28;20081;-67
2021/07/21 10:06:05;;;;;;;6.18;4.20;;;35.10;40.40;;;;;;5089348;28;20490;-67
2021/07/21 10:08:38;;;;;;;6.05;4.88;;;34.80;41.10;;;;;;5087336;28;20020;-67
2021/07/21 10:11:28;;;;;;;7.28;5.03;;;34.50;41.80;;;;;;5047256;28;20519;-66
2021/07/21 10:14:15;;;;;;;6.60;4.67;;;34.30;41.50;;;;;;5084809;28;20028;-68
2021/07/21 10:16:47;;;;;;;8.65;4.40;;;34.10;41.40;;;;;;5089455;28;20242;-69
2021/07/21 10:19:18;;;;;;;6.80;4.85;;;33.60;42.10;;;;;;5073047;28;20473;-69
2021/07/21 10:21:51;;;;;;;9.07;6.13;;;33.40;42.40;;;;;;5064836;28;20024;-68
2021/07/21 10:24:18;;;;;;;5.63;5.03;;;33.10;42.10;;;;;;5091954;28;20024;-68
2021/07/21 10:26:44;;;;;;;7.10;5.05;;;32.50;42.20;;;;;;5092817;28;20039;-68
2021/07/21 10:29:11;;;;;;;7.78;5.28;;;32.00;42.40;;;;;;5094045;28;20020;-68
2021/07/21 10:31:38;;;;;;;6.80;5.15;;;31.70;42.70;;;;;;5094152;28;20111;-68
2021/07/21 10:34:03;;;;;;;7.50;4.90;;;31.10;42.20;;;;;;5093885;28;20021;-68
2021/07/21 10:36:30;;;;;;;7.45;5.53;;;30.70;43.40;;;;;;5092779;28;20081;-68
2021/07/21 10:38:56;;;;;;;10.05;5.38;;;30.50;44.20;;;;;;5093923;28;20017;-68
2021/07/21 10:41:22;;;;;;;8.23;5.20;;;30.60;44.70;;;;;;5072154;28;20023;-68
2021/07/21 10:43:52;;;;;;;7.22;5.35;;;30.40;43.60;;;;;;5093709;28;20687;-68
2021/07/21 10:46:37;;;;;;;7.43;5.03;;;30.00;44.30;;;;;;5092705;28;20165;-68
2021/07/21 10:49:07;;;;;;;6.32;5.15;;;29.80;44.70;;;;;;5093650;28;20369;-68
2021/07/21 10:51:48;;;;;;;9.43;5.55;;;29.70;44.80;;;;;;5093626;28;20024;-68
2021/07/21 10:54:43;;;;;;;7.47;5.35;;;29.80;45.90;;;;;;5093654;28;20115;-68
2021/07/21 11:00:14;;;;;;;8.20;5.28;;;30.00;45.60;;;;;;5093913;28;20479;-68
2021/07/21 11:02:41;;;;;;;8.77;5.13;;;30.10;45.60;;;;;;5093552;28;20115;-68
2021/07/21 11:05:09;;;;;;;6.88;5.45;;;30.10;45.60;;;;;;5092295;28;20028;-68
2021/07/21 11:07:52;;;;;;;7.00;4.70;;;30.10;45.40;;;;;;5075154;28;20114;-68
2021/07/21 11:10:33;;;;;;;9.52;4.88;;;30.20;45.60;;;;;;5051375;28;20035;-68
2021/07/21 11:12:59;;;;;;;7.93;4.68;;;30.20;46.40;;;;;;5079293;28;20051;-68
2021/07/21 11:15:37;;;;;;;8.50;5.30;;;30.20;46.00;;;;;;5073996;28;20138;-68
2021/07/21 11:18:21;;;;;;;7.82;4.72;;;30.10;46.00;;;;;;5085853;28;20103;-68
2021/07/21 11:21:07;;;;;;;7.15;5.30;;;30.10;45.80;;;;;;5059350;28;20024;-68
2021/07/21 11:23:51;;;;;;;8.10;4.80;;;30.10;45.50;;;;;;5092938;28;20032;-68
2021/07/21 11:26:50;;;;;;;9.32;5.22;;;29.90;45.50;;;;;;5073540;28;20030;-68
2021/07/21 11:29:27;;;;;;;8.50;4.75;;;29.80;45.90;;;;;;5074611;28;20056;-68
2021/07/21 11:31:57;;;;;;;9.20;4.85;;;29.80;44.80;;;;;;5093065;28;20375;-68
2021/07/21 11:34:31;;;;;;;8.77;5.40;;;29.60;45.20;;;;;;5092584;28;20095;-68
2021/07/21 11:37:24;;;;;;;7.32;5.00;;;29.50;45.60;;;;;;5091280;28;20028;-68
2021/07/21 11:39:52;;;;;;;6.57;4.95;;;29.40;45.00;;;;;;5075446;28;20040;-68
2021/07/21 11:42:26;;;;;;;6.25;4.55;;;29.40;45.50;;;;;;5071607;28;20028;-68
2021/07/21 11:45:13;;;;;;;7.88;5.22;;;29.50;45.80;;;;;;5091656;28;20820;-68
2021/07/21 11:47:45;;;;;;;6.32;4.63;;;29.40;44.60;;;;;;5092569;28;20031;-68
2021/07/21 11:50:29;;;;;;;10.38;5.50;;;29.20;45.00;;;;;;5092413;28;20028;-68
2021/07/21 11:52:58;;;;;;;10.68;5.30;;;29.10;44.90;;;;;;5092660;28;20059;-68
2021/07/21 11:55:30;;;;;;;7.82;4.65;;;28.90;44.70;;;;;;5091403;28;20095;-68
2021/07/21 11:57:56;;;;;;;8.35;4.88;;;28.70;45.20;;;;;;5092223;28;20052;-68
2021/07/21 12:00:24;;;;;;;6.05;5.28;;;28.60;45.20;;;;;;5092454;28;20105;-68
2021/07/21 12:03:00;;;;;;;11.13;5.40;;;28.50;45.20;;;;;;5092106;28;20025;-68
2021/07/21 12:05:27;;;;;;;9.50;5.00;;;28.40;45.50;;;;;;5091097;28;20024;-68
2021/07/21 12:07:53;;;;;;;9.75;5.30;;;28.50;45.30;;;;;;5092202;28;20028;-68
2021/07/21 12:10:20;;;;;;;8.10;4.60;;;28.60;45.70;;;;;;5068098;28;20095;-68
2021/07/21 12:12:45;;;;;;;7.90;5.05;;;28.70;46.30;;;;;;5076238;28;20024;-68
2021/07/21 12:15:15;;;;;;;7.85;5.40;;;28.90;45.60;;;;;;5090875;28;20032;-68
2021/07/21 12:17:41;;;;;;;6.57;4.72;;;29.10;44.90;;;;;;5087614;28;20133;-68
2021/07/21 12:20:09;;;;;;;6.28;4.68;;;29.00;44.60;;;;;;5071507;28;20027;-68
2021/07/21 12:22:38;;;;;;;7.70;4.88;;;28.90;44.40;;;;;;5091471;28;20016;-68
2021/07/21 12:25:12;;;;;;;29.77;19.30;;;28.90;45.10;;;;;;5090845;28;20047;-68
2021/07/21 12:27:42;;;;;;;9.40;4.93;;;29.10;45.00;;;;;;5091533;28;20020;-68
2021/07/21 12:30:08;;;;;;;7.55;4.63;;;29.20;44.70;;;;;;5091833;28;20038;-68
2021/07/21 12:32:34;;;;;;;7.60;5.05;;;29.20;44.60;;;;;;5091692;28;20202;-68
2021/07/21 12:35:00;;;;;;;9.93;4.80;;;29.20;43.90;;;;;;5072447;28;20066;-68
2021/07/21 12:37:30;;;;;;;6.22;5.00;;;29.00;44.50;;;;;;5091511;28;20044;-68
2021/07/21 12:39:58;;;;;;;6.30;4.85;;;29.00;44.90;;;;;;5090766;28;20024;-68
2021/07/21 12:42:26;;;;;;;9.00;4.60;;;29.10;44.50;;;;;;5089206;28;20016;-68
2021/07/21 12:45:03;;;;;;;9.20;5.00;;;29.20;45.10;;;;;;5090431;28;20116;-68
2021/07/21 12:47:30;;;;;;;6.95;4.43;;;29.40;44.50;;;;;;5091231;28;20087;-68
2021/07/21 12:50:06;;;;;;;8.65;4.60;;;29.50;44.60;;;;;;5091382;28;20069;-68
2021/07/21 12:52:37;;;;;;;10.43;7.15;;;29.70;44.30;;;;;;5091660;28;20032;-68
2021/07/21 12:55:07;;;;;;;6.25;4.65;;;29.70;44.60;;;;;;5090487;28;20028;-68
2021/07/21 12:57:38;;;;;;;7.72;5.38;;;29.70;44.20;;;;;;5091259;28;20020;-68